sensor_id;sensor_type;location;lat;lon;timestamp;P1;durP1;ratioP1;P2;durP2;ratioP2
28529;SDS011;15737;49.760;6.632;2023-03-01T00:01:52;1.33;;;1.23;;
28529;SDS011;15737;49.760;6.632;2023-03-01T00:04:17;1.57;;;1.40;;
28529;SDS011;15737;49.760;6.632;2023-03-01T00:06:43;2.43;;;1.73;;
28529;SDS011;15737;49.760;6.632;2023-03-01T00:09:11;1.20;;;1.10;;
28529;SDS011;15737;49.760;6.632;2023-03-01T00:11:38;1.50;;;1.33;;
28529;SDS011;15737;49.760;6.632;2023-03-01T00:14:03;2.80;;;1.47;;
28529;SDS011;15737;49.760;6.632;2023-03-01T00:16:33;1.10;;;1.00;;
28529;SDS011;15737;49.760;6.632;2023-03-01T00:19:01;1.77;;;1.63;;
28529;SDS011;15737;49.760;6.632;2023-03-01T00:21:27;2.43;;;1.10;;
28529;SDS011;15737;49.760;6.632;2023-03-01T00:23:53;4.70;;;1.80;;
28529;SDS011;15737;49.760;6.632;2023-03-01T00:26:19;1.37;;;1.27;;
28529;SDS011;15737;49.760;6.632;2023-03-01T00:28:46;2.23;;;1.30;;
28529;SDS011;15737;49.760;6.632;2023-03-01T00:31:13;4.33;;;1.77;;
28529;SDS011;15737;49.760;6.632;2023-03-01T00:33:46;4.70;;;2.40;;
28529;SDS011;15737;49.760;6.632;2023-03-01T00:36:13;0.97;;;0.97;;
28529;SDS011;15737;49.760;6.632;2023-03-01T00:38:41;2.97;;;1.27;;
28529;SDS011;15737;49.760;6.632;2023-03-01T00:41:12;1.83;;;1.23;;
28529;SDS011;15737;49.760;6.632;2023-03-01T00:43:39;2.97;;;2.07;;
28529;SDS011;15737;49.760;6.632;2023-03-01T00:46:06;1.50;;;1.40;;
28529;SDS011;15737;49.760;6.632;2023-03-01T00:48:34;2.53;;;1.90;;
28529;SDS011;15737;49.760;6.632;2023-03-01T00:51:07;1.83;;;1.73;;
28529;SDS011;15737;49.760;6.632;2023-03-01T00:53:35;2.00;;;1.50;;
28529;SDS011;15737;49.760;6.632;2023-03-01T00:56:01;2.17;;;1.97;;
28529;SDS011;15737;49.760;6.632;2023-03-01T00:58:28;1.33;;;1.17;;
28529;SDS011;15737;49.760;6.632;2023-03-01T01:00:54;2.10;;;1.50;;
28529;SDS011;15737;49.760;6.632;2023-03-01T01:03:19;6.60;;;1.90;;
28529;SDS011;15737;49.760;6.632;2023-03-01T01:05:45;1.83;;;1.60;;
28529;SDS011;15737;49.760;6.632;2023-03-01T01:08:10;2.40;;;1.80;;
28529;SDS011;15737;49.760;6.632;2023-03-01T01:10:36;2.17;;;1.73;;
28529;SDS011;15737;49.760;6.632;2023-03-01T01:13:02;7.50;;;1.93;;
28529;SDS011;15737;49.760;6.632;2023-03-01T01:15:28;1.30;;;1.30;;
28529;SDS011;15737;49.760;6.632;2023-03-01T01:17:53;1.70;;;1.27;;
28529;SDS011;15737;49.760;6.632;2023-03-01T01:20:19;2.13;;;1.83;;
28529;SDS011;15737;49.760;6.632;2023-03-01T01:22:45;1.80;;;1.63;;
28529;SDS011;15737;49.760;6.632;2023-03-01T01:25:11;4.90;;;2.10;;
28529;SDS011;15737;49.760;6.632;2023-03-01T01:27:36;1.33;;;1.23;;
28529;SDS011;15737;49.760;6.632;2023-03-01T01:30:02;2.73;;;1.13;;
28529;SDS011;15737;49.760;6.632;2023-03-01T01:32:29;1.80;;;1.30;;
28529;SDS011;15737;49.760;6.632;2023-03-01T01:34:54;1.40;;;1.30;;
28529;SDS011;15737;49.760;6.632;2023-03-01T01:37:20;2.30;;;1.60;;
28529;SDS011;15737;49.760;6.632;2023-03-01T01:39:45;1.93;;;1.43;;
28529;SDS011;15737;49.760;6.632;2023-03-01T01:42:14;4.90;;;1.20;;
28529;SDS011;15737;49.760;6.632;2023-03-01T01:44:42;1.37;;;0.73;;
28529;SDS011;15737;49.760;6.632;2023-03-01T01:47:17;2.37;;;1.70;;
28529;SDS011;15737;49.760;6.632;2023-03-01T01:49:51;1.37;;;1.27;;
28529;SDS011;15737;49.760;6.632;2023-03-01T01:52:30;3.40;;;2.53;;
28529;SDS011;15737;49.760;6.632;2023-03-01T01:57:38;1.77;;;1.67;;
28529;SDS011;15737;49.760;6.632;2023-03-01T02:00:08;8.10;;;1.97;;
28529;SDS011;15737;49.760;6.632;2023-03-01T02:02:38;2.40;;;2.07;;
28529;SDS011;15737;49.760;6.632;2023-03-01T02:05:15;4.00;;;1.97;;
28529;SDS011;15737;49.760;6.632;2023-03-01T02:07:47;2.73;;;1.73;;
28529;SDS011;15737;49.760;6.632;2023-03-01T02:10:14;5.97;;;1.67;;
28529;SDS011;15737;49.760;6.632;2023-03-01T02:12:40;2.97;;;1.20;;
28529;SDS011;15737;49.760;6.632;2023-03-01T02:15:06;2.97;;;2.23;;
28529;SDS011;15737;49.760;6.632;2023-03-01T02:17:31;2.53;;;1.83;;
28529;SDS011;15737;49.760;6.632;2023-03-01T02:22:26;1.70;;;1.50;;
28529;SDS011;15737;49.760;6.632;2023-03-01T02:24:57;1.53;;;1.43;;
28529;SDS011;15737;49.760;6.632;2023-03-01T02:27:33;1.00;;;0.93;;
28529;SDS011;15737;49.760;6.632;2023-03-01T02:30:10;1.60;;;1.23;;
28529;SDS011;15737;49.760;6.632;2023-03-01T02:32:37;6.90;;;2.10;;
28529;SDS011;15737;49.760;6.632;2023-03-01T02:35:06;1.20;;;0.77;;
28529;SDS011;15737;49.760;6.632;2023-03-01T02:37:36;3.37;;;2.23;;
28529;SDS011;15737;49.760;6.632;2023-03-01T02:40:05;2.67;;;2.00;;
28529;SDS011;15737;49.760;6.632;2023-03-01T02:42:37;4.33;;;2.30;;
28529;SDS011;15737;49.760;6.632;2023-03-01T02:45:09;2.03;;;1.10;;
28529;SDS011;15737;49.760;6.632;2023-03-01T02:47:35;2.10;;;1.90;;
28529;SDS011;15737;49.760;6.632;2023-03-01T02:50:01;1.43;;;1.30;;
28529;SDS011;15737;49.760;6.632;2023-03-01T02:52:45;2.07;;;1.30;;
28529;SDS011;15737;49.760;6.632;2023-03-01T02:55:18;3.10;;;1.77;;
28529;SDS011;15737;49.760;6.632;2023-03-01T02:57:45;1.83;;;1.43;;
28529;SDS011;15737;49.760;6.632;2023-03-01T03:00:17;1.23;;;1.20;;
28529;SDS011;15737;49.760;6.632;2023-03-01T03:02:50;3.47;;;2.10;;
28529;SDS011;15737;49.760;6.632;2023-03-01T03:05:21;2.17;;;1.17;;
28529;SDS011;15737;49.760;6.632;2023-03-01T03:07:57;2.77;;;1.20;;
28529;SDS011;15737;49.760;6.632;2023-03-01T03:10:31;2.37;;;1.30;;
28529;SDS011;15737;49.760;6.632;2023-03-01T03:12:59;1.97;;;1.70;;
28529;SDS011;15737;49.760;6.632;2023-03-01T03:15:27;1.40;;;1.30;;
28529;SDS011;15737;49.760;6.632;2023-03-01T03:17:54;1.63;;;1.53;;
28529;SDS011;15737;49.760;6.632;2023-03-01T03:20:23;4.53;;;2.13;;
28529;SDS011;15737;49.760;6.632;2023-03-01T03:22:51;1.57;;;1.47;;
28529;SDS011;15737;49.760;6.632;2023-03-01T03:25:19;2.57;;;1.80;;
28529;SDS011;15737;49.760;6.632;2023-03-01T03:27:47;3.73;;;1.77;;
28529;SDS011;15737;49.760;6.632;2023-03-01T03:30:15;2.83;;;1.40;;
28529;SDS011;15737;49.760;6.632;2023-03-01T03:32:43;1.93;;;0.97;;
28529;SDS011;15737;49.760;6.632;2023-03-01T03:35:17;2.50;;;2.03;;
28529;SDS011;15737;49.760;6.632;2023-03-01T03:37:48;2.07;;;1.57;;
28529;SDS011;15737;49.760;6.632;2023-03-01T03:40:34;1.73;;;1.23;;
28529;SDS011;15737;49.760;6.632;2023-03-01T03:43:03;3.07;;;0.80;;
28529;SDS011;15737;49.760;6.632;2023-03-01T03:45:29;1.97;;;1.73;;
28529;SDS011;15737;49.760;6.632;2023-03-01T03:47:58;1.27;;;1.17;;
28529;SDS011;15737;49.760;6.632;2023-03-01T03:50:24;3.40;;;2.43;;
28529;SDS011;15737;49.760;6.632;2023-03-01T03:52:49;2.00;;;1.23;;
28529;SDS011;15737;49.760;6.632;2023-03-01T03:55:15;0.80;;;0.80;;
28529;SDS011;15737;49.760;6.632;2023-03-01T03:57:44;1.33;;;1.23;;
28529;SDS011;15737;49.760;6.632;2023-03-01T04:00:17;2.77;;;2.13;;
28529;SDS011;15737;49.760;6.632;2023-03-01T04:02:45;1.30;;;1.20;;
28529;SDS011;15737;49.760;6.632;2023-03-01T04:05:13;2.53;;;1.77;;
28529;SDS011;15737;49.760;6.632;2023-03-01T04:07:41;2.53;;;1.70;;
28529;SDS011;15737;49.760;6.632;2023-03-01T04:10:08;1.60;;;1.47;;
28529;SDS011;15737;49.760;6.632;2023-03-01T04:12:36;2.00;;;1.90;;
28529;SDS011;15737;49.760;6.632;2023-03-01T04:15:02;2.60;;;2.23;;
28529;SDS011;15737;49.760;6.632;2023-03-01T04:17:41;2.20;;;0.80;;
28529;SDS011;15737;49.760;6.632;2023-03-01T04:20:12;2.53;;;2.33;;
28529;SDS011;15737;49.760;6.632;2023-03-01T04:22:42;2.77;;;2.10;;
28529;SDS011;15737;49.760;6.632;2023-03-01T04:25:11;1.60;;;1.50;;
28529;SDS011;15737;49.760;6.632;2023-03-01T04:27:39;3.63;;;2.00;;
28529;SDS011;15737;49.760;6.632;2023-03-01T04:30:06;5.77;;;3.00;;
28529;SDS011;15737;49.760;6.632;2023-03-01T04:32:32;4.33;;;2.07;;
28529;SDS011;15737;49.760;6.632;2023-03-01T04:34:58;3.27;;;2.07;;
28529;SDS011;15737;49.760;6.632;2023-03-01T04:37:24;2.47;;;2.03;;
28529;SDS011;15737;49.760;6.632;2023-03-01T04:39:50;2.73;;;2.03;;
28529;SDS011;15737;49.760;6.632;2023-03-01T04:42:16;3.93;;;2.07;;
28529;SDS011;15737;49.760;6.632;2023-03-01T04:44:42;2.73;;;1.60;;
28529;SDS011;15737;49.760;6.632;2023-03-01T04:47:09;3.97;;;1.83;;
28529;SDS011;15737;49.760;6.632;2023-03-01T04:49:35;3.27;;;2.50;;
28529;SDS011;15737;49.760;6.632;2023-03-01T04:52:00;2.80;;;2.53;;
28529;SDS011;15737;49.760;6.632;2023-03-01T04:54:33;2.83;;;2.37;;
28529;SDS011;15737;49.760;6.632;2023-03-01T04:56:59;2.60;;;2.00;;
28529;SDS011;15737;49.760;6.632;2023-03-01T04:59:25;8.40;;;2.80;;
28529;SDS011;15737;49.760;6.632;2023-03-01T05:01:51;4.53;;;2.37;;
28529;SDS011;15737;49.760;6.632;2023-03-01T05:04:17;2.67;;;2.37;;
28529;SDS011;15737;49.760;6.632;2023-03-01T05:06:43;4.10;;;2.47;;
28529;SDS011;15737;49.760;6.632;2023-03-01T05:09:09;4.60;;;2.93;;
28529;SDS011;15737;49.760;6.632;2023-03-01T05:11:36;8.00;;;2.93;;
28529;SDS011;15737;49.760;6.632;2023-03-01T05:14:02;1.70;;;1.53;;
28529;SDS011;15737;49.760;6.632;2023-03-01T05:16:28;5.00;;;3.40;;
28529;SDS011;15737;49.760;6.632;2023-03-01T05:18:55;3.37;;;2.33;;
28529;SDS011;15737;49.760;6.632;2023-03-01T05:21:21;5.80;;;2.33;;
28529;SDS011;15737;49.760;6.632;2023-03-01T05:23:47;3.87;;;2.47;;
28529;SDS011;15737;49.760;6.632;2023-03-01T05:26:13;9.97;;;4.07;;
28529;SDS011;15737;49.760;6.632;2023-03-01T05:28:43;2.57;;;2.37;;
28529;SDS011;15737;49.760;6.632;2023-03-01T05:31:09;4.70;;;3.03;;
28529;SDS011;15737;49.760;6.632;2023-03-01T05:33:38;4.17;;;3.17;;
28529;SDS011;15737;49.760;6.632;2023-03-01T05:36:05;4.53;;;2.80;;
28529;SDS011;15737;49.760;6.632;2023-03-01T05:38:36;2.70;;;2.50;;
28529;SDS011;15737;49.760;6.632;2023-03-01T05:41:02;4.30;;;2.47;;
28529;SDS011;15737;49.760;6.632;2023-03-01T05:43:30;5.83;;;2.77;;
28529;SDS011;15737;49.760;6.632;2023-03-01T05:45:58;7.17;;;2.57;;
28529;SDS011;15737;49.760;6.632;2023-03-01T05:48:24;4.53;;;1.67;;
28529;SDS011;15737;49.760;6.632;2023-03-01T05:50:50;4.03;;;3.07;;
28529;SDS011;15737;49.760;6.632;2023-03-01T05:53:17;4.57;;;2.87;;
28529;SDS011;15737;49.760;6.632;2023-03-01T05:55:46;3.20;;;2.30;;
28529;SDS011;15737;49.760;6.632;2023-03-01T05:58:13;5.03;;;2.27;;
28529;SDS011;15737;49.760;6.632;2023-03-01T06:00:41;8.23;;;4.10;;
28529;SDS011;15737;49.760;6.632;2023-03-01T06:03:09;2.53;;;2.20;;
28529;SDS011;15737;49.760;6.632;2023-03-01T06:05:36;4.53;;;2.90;;
28529;SDS011;15737;49.760;6.632;2023-03-01T06:08:02;7.17;;;3.73;;
28529;SDS011;15737;49.760;6.632;2023-03-01T06:10:28;5.47;;;3.30;;
28529;SDS011;15737;49.760;6.632;2023-03-01T06:12:54;4.33;;;2.30;;
28529;SDS011;15737;49.760;6.632;2023-03-01T06:15:20;9.40;;;3.40;;
28529;SDS011;15737;49.760;6.632;2023-03-01T06:17:47;1.40;;;1.23;;
28529;SDS011;15737;49.760;6.632;2023-03-01T06:20:13;2.93;;;2.40;;
28529;SDS011;15737;49.760;6.632;2023-03-01T06:22:41;4.53;;;2.40;;
28529;SDS011;15737;49.760;6.632;2023-03-01T06:25:08;6.57;;;4.37;;
28529;SDS011;15737;49.760;6.632;2023-03-01T06:27:35;6.87;;;4.17;;
28529;SDS011;15737;49.760;6.632;2023-03-01T06:30:01;10.53;;;5.07;;
28529;SDS011;15737;49.760;6.632;2023-03-01T06:32:27;3.90;;;3.50;;
28529;SDS011;15737;49.760;6.632;2023-03-01T06:34:53;3.00;;;2.43;;
28529;SDS011;15737;49.760;6.632;2023-03-01T06:37:18;4.07;;;2.90;;
28529;SDS011;15737;49.760;6.632;2023-03-01T06:39:44;5.13;;;3.50;;
28529;SDS011;15737;49.760;6.632;2023-03-01T06:42:09;3.57;;;2.90;;
28529;SDS011;15737;49.760;6.632;2023-03-01T06:44:36;4.23;;;2.27;;
28529;SDS011;15737;49.760;6.632;2023-03-01T06:47:02;3.13;;;2.23;;
28529;SDS011;15737;49.760;6.632;2023-03-01T06:49:28;5.10;;;3.07;;
28529;SDS011;15737;49.760;6.632;2023-03-01T06:51:53;8.17;;;4.77;;
28529;SDS011;15737;49.760;6.632;2023-03-01T06:54:19;5.20;;;2.80;;
28529;SDS011;15737;49.760;6.632;2023-03-01T06:56:47;2.87;;;1.70;;
28529;SDS011;15737;49.760;6.632;2023-03-01T06:59:13;7.17;;;3.00;;
28529;SDS011;15737;49.760;6.632;2023-03-01T07:01:39;5.63;;;2.83;;
28529;SDS011;15737;49.760;6.632;2023-03-01T07:04:04;4.73;;;2.87;;
28529;SDS011;15737;49.760;6.632;2023-03-01T07:06:30;5.43;;;3.53;;
28529;SDS011;15737;49.760;6.632;2023-03-01T07:08:55;8.70;;;4.50;;
28529;SDS011;15737;49.760;6.632;2023-03-01T07:11:21;8.60;;;4.40;;
28529;SDS011;15737;49.760;6.632;2023-03-01T07:13:47;6.90;;;3.23;;
28529;SDS011;15737;49.760;6.632;2023-03-01T07:16:13;6.30;;;4.07;;
28529;SDS011;15737;49.760;6.632;2023-03-01T07:18:39;8.20;;;3.37;;
28529;SDS011;15737;49.760;6.632;2023-03-01T07:21:06;8.70;;;4.03;;
28529;SDS011;15737;49.760;6.632;2023-03-01T07:23:32;3.40;;;2.67;;
28529;SDS011;15737;49.760;6.632;2023-03-01T07:25:58;3.90;;;2.60;;
28529;SDS011;15737;49.760;6.632;2023-03-01T07:28:23;9.77;;;4.33;;
28529;SDS011;15737;49.760;6.632;2023-03-01T07:30:49;4.73;;;2.40;;
28529;SDS011;15737;49.760;6.632;2023-03-01T07:33:15;2.40;;;1.80;;
28529;SDS011;15737;49.760;6.632;2023-03-01T07:35:41;5.50;;;3.97;;
28529;SDS011;15737;49.760;6.632;2023-03-01T07:38:07;8.83;;;4.00;;
28529;SDS011;15737;49.760;6.632;2023-03-01T07:40:32;4.90;;;3.40;;
28529;SDS011;15737;49.760;6.632;2023-03-01T07:42:58;6.97;;;4.33;;
28529;SDS011;15737;49.760;6.632;2023-03-01T07:45:24;7.87;;;4.27;;
28529;SDS011;15737;49.760;6.632;2023-03-01T07:47:53;6.30;;;3.50;;
28529;SDS011;15737;49.760;6.632;2023-03-01T07:50:20;7.50;;;4.73;;
28529;SDS011;15737;49.760;6.632;2023-03-01T07:52:47;7.30;;;4.63;;
28529;SDS011;15737;49.760;6.632;2023-03-01T07:55:14;11.47;;;5.90;;
28529;SDS011;15737;49.760;6.632;2023-03-01T07:57:41;6.77;;;4.23;;
28529;SDS011;15737;49.760;6.632;2023-03-01T08:00:07;9.77;;;4.60;;
28529;SDS011;15737;49.760;6.632;2023-03-01T08:02:33;7.23;;;4.60;;
28529;SDS011;15737;49.760;6.632;2023-03-01T08:04:58;7.53;;;4.83;;
28529;SDS011;15737;49.760;6.632;2023-03-01T08:07:24;7.20;;;4.23;;
28529;SDS011;15737;49.760;6.632;2023-03-01T08:09:49;5.80;;;4.30;;
28529;SDS011;15737;49.760;6.632;2023-03-01T08:12:15;8.50;;;4.63;;
28529;SDS011;15737;49.760;6.632;2023-03-01T08:14:41;6.90;;;4.80;;
28529;SDS011;15737;49.760;6.632;2023-03-01T08:17:07;7.57;;;4.83;;
28529;SDS011;15737;49.760;6.632;2023-03-01T08:19:33;7.43;;;4.37;;
28529;SDS011;15737;49.760;6.632;2023-03-01T08:21:59;6.40;;;4.23;;
28529;SDS011;15737;49.760;6.632;2023-03-01T08:24:28;8.17;;;4.87;;
28529;SDS011;15737;49.760;6.632;2023-03-01T08:26:53;6.47;;;4.47;;
28529;SDS011;15737;49.760;6.632;2023-03-01T08:29:19;6.53;;;4.47;;
28529;SDS011;15737;49.760;6.632;2023-03-01T08:31:45;12.50;;;5.50;;
28529;SDS011;15737;49.760;6.632;2023-03-01T08:34:11;9.93;;;5.43;;
28529;SDS011;15737;49.760;6.632;2023-03-01T08:36:39;8.63;;;4.30;;
28529;SDS011;15737;49.760;6.632;2023-03-01T08:39:07;9.50;;;4.70;;
28529;SDS011;15737;49.760;6.632;2023-03-01T08:41:34;9.13;;;5.50;;
28529;SDS011;15737;49.760;6.632;2023-03-01T08:43:59;11.93;;;5.10;;
28529;SDS011;15737;49.760;6.632;2023-03-01T08:46:29;9.70;;;4.20;;
28529;SDS011;15737;49.760;6.632;2023-03-01T08:48:59;6.80;;;4.33;;
28529;SDS011;15737;49.760;6.632;2023-03-01T08:51:25;7.53;;;4.53;;
28529;SDS011;15737;49.760;6.632;2023-03-01T08:53:51;8.13;;;4.53;;
28529;SDS011;15737;49.760;6.632;2023-03-01T08:56:17;8.33;;;4.00;;
28529;SDS011;15737;49.760;6.632;2023-03-01T08:58:44;11.67;;;6.23;;
28529;SDS011;15737;49.760;6.632;2023-03-01T09:01:12;10.77;;;5.20;;
28529;SDS011;15737;49.760;6.632;2023-03-01T09:08:48;8.60;;;5.40;;
28529;SDS011;15737;49.760;6.632;2023-03-01T09:11:17;7.83;;;4.67;;
28529;SDS011;15737;49.760;6.632;2023-03-01T09:13:47;6.70;;;4.53;;
28529;SDS011;15737;49.760;6.632;2023-03-01T09:16:14;10.00;;;6.17;;
28529;SDS011;15737;49.760;6.632;2023-03-01T09:18:42;9.10;;;5.23;;
28529;SDS011;15737;49.760;6.632;2023-03-01T09:21:17;6.93;;;4.93;;
28529;SDS011;15737;49.760;6.632;2023-03-01T09:23:47;12.60;;;6.07;;
28529;SDS011;15737;49.760;6.632;2023-03-01T09:26:14;8.43;;;5.93;;
28529;SDS011;15737;49.760;6.632;2023-03-01T09:28:46;9.30;;;5.63;;
28529;SDS011;15737;49.760;6.632;2023-03-01T09:31:24;13.50;;;6.47;;
28529;SDS011;15737;49.760;6.632;2023-03-01T09:33:54;9.03;;;7.70;;
28529;SDS011;15737;49.760;6.632;2023-03-01T09:36:22;12.23;;;11.10;;
28529;SDS011;15737;49.760;6.632;2023-03-01T09:38:50;10.77;;;9.37;;
28529;SDS011;15737;49.760;6.632;2023-03-01T09:43:44;16.77;;;15.47;;
28529;SDS011;15737;49.760;6.632;2023-03-01T09:46:11;17.93;;;16.60;;
28529;SDS011;15737;49.760;6.632;2023-03-01T09:48:46;13.33;;;11.97;;
28529;SDS011;15737;49.760;6.632;2023-03-01T09:51:27;19.40;;;17.70;;
28529;SDS011;15737;49.760;6.632;2023-03-01T09:53:56;19.33;;;17.97;;
28529;SDS011;15737;49.760;6.632;2023-03-01T09:56:25;17.03;;;15.47;;
28529;SDS011;15737;49.760;6.632;2023-03-01T10:01:48;24.33;;;22.67;;
28529;SDS011;15737;49.760;6.632;2023-03-01T10:07:12;22.27;;;20.57;;
28529;SDS011;15737;49.760;6.632;2023-03-01T10:09:47;22.80;;;21.03;;
28529;SDS011;15737;49.760;6.632;2023-03-01T10:12:23;28.73;;;26.80;;
28529;SDS011;15737;49.760;6.632;2023-03-01T10:15:18;24.07;;;22.47;;
28529;SDS011;15737;49.760;6.632;2023-03-01T10:17:46;24.70;;;22.97;;
28529;SDS011;15737;49.760;6.632;2023-03-01T10:22:58;11.27;;;10.10;;
28529;SDS011;15737;49.760;6.632;2023-03-01T10:28:10;8.93;;;6.10;;
28529;SDS011;15737;49.760;6.632;2023-03-01T10:31:14;10.33;;;6.97;;
28529;SDS011;15737;49.760;6.632;2023-03-01T10:33:44;9.27;;;6.43;;
28529;SDS011;15737;49.760;6.632;2023-03-01T10:36:09;11.30;;;6.87;;
28529;SDS011;15737;49.760;6.632;2023-03-01T10:41:25;10.60;;;7.07;;
28529;SDS011;15737;49.760;6.632;2023-03-01T10:43:53;8.50;;;6.30;;
28529;SDS011;15737;49.760;6.632;2023-03-01T10:46:27;8.97;;;6.50;;
28529;SDS011;15737;49.760;6.632;2023-03-01T10:51:39;11.40;;;7.77;;
28529;SDS011;15737;49.760;6.632;2023-03-01T10:54:15;11.87;;;7.87;;
28529;SDS011;15737;49.760;6.632;2023-03-01T10:56:53;10.93;;;6.77;;
28529;SDS011;15737;49.760;6.632;2023-03-01T10:59:28;11.43;;;7.67;;
28529;SDS011;15737;49.760;6.632;2023-03-01T11:04:57;10.83;;;7.73;;
28529;SDS011;15737;49.760;6.632;2023-03-01T11:07:27;11.70;;;7.23;;
28529;SDS011;15737;49.760;6.632;2023-03-01T11:12:21;11.40;;;7.60;;
28529;SDS011;15737;49.760;6.632;2023-03-01T11:14:48;11.30;;;6.85;;
28529;SDS011;15737;49.760;6.632;2023-03-01T11:17:29;13.82;;;8.40;;
28529;SDS011;15737;49.760;6.632;2023-03-01T11:20:00;11.17;;;7.47;;
28529;SDS011;15737;49.760;6.632;2023-03-01T11:22:26;11.93;;;7.67;;
28529;SDS011;15737;49.760;6.632;2023-03-01T11:24:53;10.73;;;7.73;;
28529;SDS011;15737;49.760;6.632;2023-03-01T11:27:28;10.65;;;7.28;;
28529;SDS011;15737;49.760;6.632;2023-03-01T11:30:06;10.60;;;6.80;;
28529;SDS011;15737;49.760;6.632;2023-03-01T11:32:41;9.60;;;6.63;;
28529;SDS011;15737;49.760;6.632;2023-03-01T11:37:51;11.93;;;7.87;;
28529;SDS011;15737;49.760;6.632;2023-03-01T11:40:30;9.70;;;6.77;;
28529;SDS011;15737;49.760;6.632;2023-03-01T11:51:25;10.60;;;7.55;;
28529;SDS011;15737;49.760;6.632;2023-03-01T11:54:09;11.18;;;8.55;;
28529;SDS011;15737;49.760;6.632;2023-03-01T11:59:45;10.45;;;7.82;;
28529;SDS011;15737;49.760;6.632;2023-03-01T12:05:35;11.65;;;7.65;;
28529;SDS011;15737;49.760;6.632;2023-03-01T12:08:11;9.43;;;7.15;;
28529;SDS011;15737;49.760;6.632;2023-03-01T12:11:00;9.98;;;7.47;;
28529;SDS011;15737;49.760;6.632;2023-03-01T12:13:38;9.68;;;6.72;;
28529;SDS011;15737;49.760;6.632;2023-03-01T12:16:23;10.35;;;7.20;;
28529;SDS011;15737;49.760;6.632;2023-03-01T12:19:08;10.88;;;7.78;;
28529;SDS011;15737;49.760;6.632;2023-03-01T12:21:59;12.02;;;7.20;;
28529;SDS011;15737;49.760;6.632;2023-03-01T12:41:43;14.53;;;7.73;;
28529;SDS011;15737;49.760;6.632;2023-03-01T12:44:35;10.83;;;7.17;;
28529;SDS011;15737;49.760;6.632;2023-03-01T12:47:13;9.63;;;7.00;;
28529;SDS011;15737;49.760;6.632;2023-03-01T12:49:53;10.50;;;7.70;;
28529;SDS011;15737;49.760;6.632;2023-03-01T12:52:24;10.13;;;7.03;;
28529;SDS011;15737;49.760;6.632;2023-03-01T12:54:54;11.27;;;7.07;;
28529;SDS011;15737;49.760;6.632;2023-03-01T12:57:30;8.50;;;6.37;;
28529;SDS011;15737;49.760;6.632;2023-03-01T13:06:08;10.70;;;7.37;;
28529;SDS011;15737;49.760;6.632;2023-03-01T13:11:18;10.80;;;7.20;;
28529;SDS011;15737;49.760;6.632;2023-03-01T13:13:46;10.73;;;6.77;;
28529;SDS011;15737;49.760;6.632;2023-03-01T13:16:46;14.40;;;7.13;;
28529;SDS011;15737;49.760;6.632;2023-03-01T13:21:37;12.03;;;7.13;;
28529;SDS011;15737;49.760;6.632;2023-03-01T13:24:03;10.00;;;7.00;;
28529;SDS011;15737;49.760;6.632;2023-03-01T13:26:29;11.80;;;7.07;;
28529;SDS011;15737;49.760;6.632;2023-03-01T13:28:54;10.80;;;6.53;;
28529;SDS011;15737;49.760;6.632;2023-03-01T13:33:51;9.90;;;7.03;;
28529;SDS011;15737;49.760;6.632;2023-03-01T13:44:20;9.03;;;6.87;;
28529;SDS011;15737;49.760;6.632;2023-03-01T13:49:46;9.55;;;7.38;;
28529;SDS011;15737;49.760;6.632;2023-03-01T13:57:40;8.17;;;6.53;;
28529;SDS011;15737;49.760;6.632;2023-03-01T14:03:05;9.50;;;6.50;;
28529;SDS011;15737;49.760;6.632;2023-03-01T14:05:37;10.20;;;6.13;;
28529;SDS011;15737;49.760;6.632;2023-03-01T14:08:05;11.57;;;6.97;;
28529;SDS011;15737;49.760;6.632;2023-03-01T14:10:54;9.07;;;6.67;;
28529;SDS011;15737;49.760;6.632;2023-03-01T14:19:24;10.00;;;6.40;;
28529;SDS011;15737;49.760;6.632;2023-03-01T14:24:48;9.07;;;6.17;;
28529;SDS011;15737;49.760;6.632;2023-03-01T14:27:14;10.07;;;7.43;;
28529;SDS011;15737;49.760;6.632;2023-03-01T14:29:41;8.60;;;6.20;;
28529;SDS011;15737;49.760;6.632;2023-03-01T14:32:20;11.80;;;6.67;;
28529;SDS011;15737;49.760;6.632;2023-03-01T14:34:49;10.07;;;6.30;;
28529;SDS011;15737;49.760;6.632;2023-03-01T14:37:23;11.30;;;7.30;;
28529;SDS011;15737;49.760;6.632;2023-03-01T14:39:53;8.07;;;5.43;;
28529;SDS011;15737;49.760;6.632;2023-03-01T14:42:21;10.80;;;7.37;;
28529;SDS011;15737;49.760;6.632;2023-03-01T14:44:51;8.17;;;5.80;;
28529;SDS011;15737;49.760;6.632;2023-03-01T14:47:28;11.60;;;6.47;;
28529;SDS011;15737;49.760;6.632;2023-03-01T14:49:57;9.63;;;6.87;;
28529;SDS011;15737;49.760;6.632;2023-03-01T14:52:34;9.27;;;6.53;;
28529;SDS011;15737;49.760;6.632;2023-03-01T14:55:03;9.97;;;5.77;;
28529;SDS011;15737;49.760;6.632;2023-03-01T14:57:31;10.33;;;6.10;;
28529;SDS011;15737;49.760;6.632;2023-03-01T14:59:57;13.83;;;6.70;;
28529;SDS011;15737;49.760;6.632;2023-03-01T15:02:27;9.77;;;6.27;;
28529;SDS011;15737;49.760;6.632;2023-03-01T15:04:56;9.43;;;5.70;;
28529;SDS011;15737;49.760;6.632;2023-03-01T15:07:26;8.70;;;5.50;;
28529;SDS011;15737;49.760;6.632;2023-03-01T15:09:54;9.93;;;6.20;;
28529;SDS011;15737;49.760;6.632;2023-03-01T15:14:52;12.13;;;6.13;;
28529;SDS011;15737;49.760;6.632;2023-03-01T15:19:45;9.67;;;5.50;;
28529;SDS011;15737;49.760;6.632;2023-03-01T15:22:14;8.80;;;5.53;;
28529;SDS011;15737;49.760;6.632;2023-03-01T15:24:41;9.03;;;5.60;;
28529;SDS011;15737;49.760;6.632;2023-03-01T15:27:15;10.33;;;6.30;;
28529;SDS011;15737;49.760;6.632;2023-03-01T15:29:46;8.87;;;5.97;;
28529;SDS011;15737;49.760;6.632;2023-03-01T15:32:28;9.40;;;6.27;;
28529;SDS011;15737;49.760;6.632;2023-03-01T15:34:56;8.57;;;5.33;;
28529;SDS011;15737;49.760;6.632;2023-03-01T15:40:24;8.27;;;5.70;;
28529;SDS011;15737;49.760;6.632;2023-03-01T15:42:57;5.37;;;4.33;;
28529;SDS011;15737;49.760;6.632;2023-03-01T15:45:28;8.63;;;5.33;;
28529;SDS011;15737;49.760;6.632;2023-03-01T15:47:56;11.20;;;6.57;;
28529;SDS011;15737;49.760;6.632;2023-03-01T15:50:33;8.63;;;4.63;;
28529;SDS011;15737;49.760;6.632;2023-03-01T15:53:01;8.33;;;4.90;;
28529;SDS011;15737;49.760;6.632;2023-03-01T15:55:32;7.13;;;4.53;;
28529;SDS011;15737;49.760;6.632;2023-03-01T16:00:43;7.37;;;4.73;;
28529;SDS011;15737;49.760;6.632;2023-03-01T16:03:10;7.53;;;4.47;;
28529;SDS011;15737;49.760;6.632;2023-03-01T16:05:37;6.23;;;3.83;;
28529;SDS011;15737;49.760;6.632;2023-03-01T16:08:03;5.77;;;4.40;;
28529;SDS011;15737;49.760;6.632;2023-03-01T16:10:31;7.10;;;4.10;;
28529;SDS011;15737;49.760;6.632;2023-03-01T16:12:58;7.33;;;4.30;;
28529;SDS011;15737;49.760;6.632;2023-03-01T16:15:25;5.60;;;3.63;;
28529;SDS011;15737;49.760;6.632;2023-03-01T16:17:56;7.40;;;3.50;;
28529;SDS011;15737;49.760;6.632;2023-03-01T16:20:25;7.37;;;3.83;;
28529;SDS011;15737;49.760;6.632;2023-03-01T16:22:52;5.27;;;3.40;;
28529;SDS011;15737;49.760;6.632;2023-03-01T16:25:18;12.30;;;3.37;;
28529;SDS011;15737;49.760;6.632;2023-03-01T16:27:45;6.67;;;3.43;;
28529;SDS011;15737;49.760;6.632;2023-03-01T16:30:13;5.30;;;3.27;;
28529;SDS011;15737;49.760;6.632;2023-03-01T16:32:39;6.07;;;3.43;;
28529;SDS011;15737;49.760;6.632;2023-03-01T16:35:06;6.03;;;3.47;;
28529;SDS011;15737;49.760;6.632;2023-03-01T16:37:33;6.80;;;3.17;;
28529;SDS011;15737;49.760;6.632;2023-03-01T16:39:59;4.20;;;3.20;;
28529;SDS011;15737;49.760;6.632;2023-03-01T16:42:25;7.63;;;3.70;;
28529;SDS011;15737;49.760;6.632;2023-03-01T16:44:54;5.67;;;3.23;;
28529;SDS011;15737;49.760;6.632;2023-03-01T16:47:20;5.47;;;3.50;;
28529;SDS011;15737;49.760;6.632;2023-03-01T16:49:46;5.00;;;2.90;;
28529;SDS011;15737;49.760;6.632;2023-03-01T16:52:11;4.97;;;3.20;;
28529;SDS011;15737;49.760;6.632;2023-03-01T16:54:37;7.70;;;3.07;;
28529;SDS011;15737;49.760;6.632;2023-03-01T16:57:02;5.97;;;3.40;;
28529;SDS011;15737;49.760;6.632;2023-03-01T16:59:28;6.80;;;3.63;;